Little Mackinaw, Illinois
Current Conditions -  °F | °C
As of 1:55 PM on Wednesday 28 Jan 2015 (Local Time) from KAAA Reporting Station
Clear Clear  
Wind Chill: 30°   Ceiling: Unl
Heat Index: 40°   Visibility: 10mi
Dew Point: 31°   Wind: 21mph
Humidity: 71%   Direction: 160°SSE
Pressure: 30.08"   Gusts: 26mph
Location:  40.4411°N, 89.3259°W
Report Text: KAAA 281955Z AUTO 16018G23KT 10SM CLR 04/M01 A3008 RMK AO2 T00431006
Loading
Personal Weather Stations






























Interactive Weather Map New forecast layout! Learn more

10-Day Weather Forecast

Advertisements
Track Severe Weather on mobile